Time;durP1;ratioP1;P1;durP2;ratioP2;P2;SDS_P1;SDS_P2;PMS_P1;PMS_P2;Temp;Humidity;BMP_temperature;BMP_pressure;BME280_temperature;BME280_humidity;BME280_pressure;Samples;Min_cycle;Max_cycle;Signal;HPM_P1;HPM_P2
2021/04/17 00:01:57;;;;;;;52.58;12.07;;;;;;;10.78;62.81;71766.03;4994204;28;20034;-88
2021/04/17 00:04:39;;;;;;;59.33;11.02;;;;;;;9.30;61.68;71590.84;4989992;28;20140;-96
2021/04/17 00:07:28;;;;;;;57.40;11.25;;;;;;;10.56;62.05;71737.06;4986150;28;20030;-92
2021/04/17 00:09:59;;;;;;;49.17;12.52;;;;;;;10.10;62.12;71684.66;4969108;28;20504;-85
2021/04/17 00:12:26;;;;;;;54.00;9.00;;;;;;;9.95;60.92;71661.88;4998955;28;20022;-85
2021/04/17 00:14:53;;;;;;;49.25;11.70;;;;;;;10.36;60.41;71717.16;4991853;28;20135;-87
2021/04/17 00:17:21;;;;;;;56.53;10.00;;;;;;;10.75;60.91;71756.94;4967344;28;20147;-86
2021/04/17 00:19:54;;;;;;;35.47;9.80;;;;;;;10.92;59.91;71778.75;4968629;28;20400;-87
2021/04/17 00:22:21;;;;;;;44.03;10.93;;;;;;;10.16;60.41;71691.19;4964446;28;20037;-85
2021/04/17 00:24:48;;;;;;;55.05;9.00;;;;;;;10.08;58.30;71680.09;4963928;28;20027;-88
2021/04/17 00:27:15;;;;;;;56.03;11.00;;;;;;;10.57;59.26;71735.50;4969460;28;20031;-87
2021/04/17 00:29:42;;;;;;;53.97;11.13;;;;;;;10.61;58.06;71745.75;4969796;28;20031;-89
2021/04/17 00:32:10;;;;;;;49.65;10.75;;;;;;;10.81;57.56;71764.09;4981493;28;20028;-88
2021/04/17 00:34:37;;;;;;;63.70;8.88;;;;;;;10.82;57.66;71768.03;4977775;28;20038;-86
2021/04/17 00:37:04;;;;;;;50.05;10.43;;;;;;;9.21;58.57;71582.84;4967826;28;20030;-85
2021/04/17 00:39:31;;;;;;;50.92;9.40;;;;;;;9.00;58.79;71558.47;4969211;28;20543;-85
2021/04/17 00:41:58;;;;;;;53.45;9.57;;;;;;;9.59;59.53;71626.31;4963440;28;20577;-86
2021/04/17 00:44:25;;;;;;;49.05;8.20;;;;;;;9.39;58.97;71598.19;4997054;28;20015;-84
2021/04/17 00:46:52;;;;;;;47.20;9.82;;;;;;;9.47;59.08;71612.00;4985364;28;20617;-89
2021/04/17 00:49:19;;;;;;;54.75;11.85;;;;;;;8.63;59.38;71519.56;4979660;28;20030;-88
2021/04/17 00:51:46;;;;;;;50.38;10.82;;;;;;;9.25;60.98;71584.28;4958730;28;20023;-87
2021/04/17 00:54:12;;;;;;;44.90;10.35;;;;;;;9.34;61.41;71599.88;4963861;28;20393;-87
2021/04/17 00:56:42;;;;;;;41.50;11.85;;;;;;;8.59;62.73;71508.72;4969526;28;20038;-94
2021/04/17 00:59:09;;;;;;;77.38;10.98;;;;;;;9.37;63.37;71604.03;4979305;28;20035;-87
2021/04/17 01:01:37;;;;;;;52.42;8.65;;;;;;;10.21;62.37;71697.13;4960261;28;20042;-88
2021/04/17 01:04:45;;;;;;;48.17;10.38;;;;;;;9.85;62.83;71653.31;4963212;28;20035;-90
2021/04/17 01:07:23;;;;;;;65.88;9.90;;;;;;;10.23;62.23;71697.38;4960399;28;20768;-88
2021/04/17 01:09:56;;;;;;;56.40;11.48;;;;;;;10.37;59.64;71713.47;4973309;28;20035;-87
2021/04/17 01:12:27;;;;;;;57.35;10.73;;;;;;;10.22;61.36;71701.66;4985024;28;20023;-86
2021/04/17 01:14:55;;;;;;;58.75;11.15;;;;;;;10.07;60.81;71681.06;4977283;28;20081;-88
2021/04/17 01:17:23;;;;;;;60.38;9.77;;;;;;;10.09;58.72;71684.03;4971670;28;20061;-88
2021/04/17 01:20:01;;;;;;;84.57;15.27;;;;;;;10.36;57.06;71711.66;4993476;28;20073;-87
2021/04/17 01:22:29;;;;;;;67.13;13.07;;;;;;;10.70;56.01;71755.91;4990499;28;20014;-89
2021/04/17 01:25:12;;;;;;;53.72;10.48;;;;;;;10.80;54.44;71762.31;4992683;28;20078;-90
2021/04/17 01:27:40;;;;;;;79.80;11.63;;;;;;;10.75;54.17;71761.88;4993929;28;20047;-89
2021/04/17 01:30:14;;;;;;;97.15;13.65;;;;;;;9.64;54.28;71634.41;4978977;28;20115;-85
2021/04/17 01:32:42;;;;;;;58.72;12.20;;;;;;;10.76;54.18;71760.88;4995151;28;20041;-90
2021/04/17 01:35:13;;;;;;;69.28;13.75;;;;;;;10.85;53.96;71770.41;5039584;28;20018;-91
2021/04/17 01:37:52;;;;;;;58.30;12.70;;;;;;;10.80;54.10;71768.41;5015259;28;20023;-89
2021/04/17 01:40:29;;;;;;;56.20;11.20;;;;;;;10.80;53.55;71765.66;5022487;28;20037;-93
2021/04/17 01:42:57;;;;;;;67.30;15.38;;;;;;;10.70;51.34;71756.47;5001198;28;20356;-86
2021/04/17 01:45:28;;;;;;;62.20;11.90;;;;;;;11.04;52.18;71789.72;4974548;28;20047;-90
2021/04/17 01:48:00;;;;;;;76.47;12.88;;;;;;;11.22;50.61;71813.31;5004062;28;20200;-89
2021/04/17 01:50:30;;;;;;;55.15;11.60;;;;;;;10.01;49.70;71677.25;5016192;28;20030;-85
2021/04/17 01:53:00;;;;;;;62.60;9.82;;;;;;;10.77;48.56;71764.81;5011606;28;20038;-86
2021/04/17 01:55:31;;;;;;;64.75;10.00;;;;;;;11.11;47.49;71803.56;4997032;28;20462;-86
2021/04/17 01:58:01;;;;;;;71.72;13.30;;;;;;;11.63;46.79;71863.16;4997323;28;20488;-88
2021/04/17 02:00:28;;;;;;;60.40;10.63;;;;;;;10.56;44.93;71737.06;5003671;28;20026;-88
2021/04/17 02:02:55;;;;;;;55.75;9.18;;;;;;;11.28;44.57;71820.47;5004360;28;20034;-87
2021/04/17 02:05:22;;;;;;;54.00;9.65;;;;;;;10.87;43.24;71775.56;5006963;28;20050;-88
2021/04/17 02:07:49;;;;;;;56.63;11.65;;;;;;;10.63;43.53;71745.41;5009730;28;20022;-87
2021/04/17 02:10:16;;;;;;;56.55;9.38;;;;;;;10.61;43.13;71745.75;5029599;28;20018;-86
2021/04/17 02:12:43;;;;;;;70.05;10.82;;;;;;;11.21;40.86;71814.88;5023344;28;20019;-87
2021/04/17 02:15:10;;;;;;;65.75;9.82;;;;;;;11.03;41.88;71794.03;5029532;28;20030;-88
2021/04/17 02:17:54;;;;;;;51.50;11.68;;;;;;;10.90;42.58;71779.75;5011799;28;20030;-88
2021/04/17 02:20:46;;;;;;;73.43;11.80;;;;;;;9.90;45.34;71659.28;5024016;28;20049;-87
2021/04/17 02:23:13;;;;;;;58.45;10.55;;;;;;;10.54;47.16;71738.03;5005743;28;20034;-86
2021/04/17 02:25:40;;;;;;;63.17;11.13;;;;;;;10.10;47.80;71687.41;5011064;28;20046;-86
2021/04/17 02:28:08;;;;;;;61.92;9.52;;;;;;;10.13;48.41;71688.22;4996321;28;20038;-89
2021/04/17 02:30:38;;;;;;;61.47;11.93;;;;;;;10.72;46.65;71756.13;5008941;28;20030;-88
2021/04/17 02:33:06;;;;;;;64.65;11.90;;;;;;;10.00;48.02;71676.66;4996032;28;20096;-89
2021/04/17 02:35:33;;;;;;;65.60;10.20;;;;;;;11.00;46.51;71790.47;4994570;28;20046;-87
2021/04/17 02:38:00;;;;;;;85.03;14.48;;;;;;;11.01;47.92;71789.50;5001322;28;20033;-87
2021/04/17 02:40:27;;;;;;;72.40;11.65;;;;;;;11.15;48.75;71807.72;5008834;28;20019;-87
2021/04/17 02:42:54;;;;;;;85.32;14.95;;;;;;;10.84;46.62;71766.47;5008670;28;20042;-89
2021/04/17 02:45:21;;;;;;;57.10;9.45;;;;;;;11.09;45.86;71801.78;4997993;28;20054;-91
2021/04/17 02:47:48;;;;;;;57.58;12.15;;;;;;;10.68;46.11;71751.97;5010892;28;20133;-90
2021/04/17 02:50:15;;;;;;;84.57;12.13;;;;;;;11.06;46.46;71794.88;5008421;28;20027;-90
2021/04/17 02:52:42;;;;;;;67.97;10.50;;;;;;;11.63;46.13;71861.00;5000535;28;20016;-91
2021/04/17 02:55:10;;;;;;;59.42;12.02;;;;;;;11.43;46.20;71839.91;5029439;28;20116;-92
2021/04/17 02:57:37;;;;;;;63.58;11.43;;;;;;;11.60;46.72;71860.19;5012288;28;20025;-90
2021/04/17 03:00:08;;;;;;;55.17;11.30;;;;;;;11.33;47.56;71826.44;5013326;28;20027;-92
2021/04/17 03:02:35;;;;;;;66.18;11.75;;;;;;;11.35;47.23;71828.25;5008855;28;20388;-91
2021/04/17 03:05:03;;;;;;;72.07;12.35;;;;;;;9.50;44.13;71618.34;4990691;28;20031;-81
2021/04/17 03:07:30;;;;;;;69.45;9.43;;;;;;;10.17;41.43;71695.72;5004620;28;20046;-86
2021/04/17 03:09:57;;;;;;;64.53;9.95;;;;;;;10.80;41.53;71762.31;5033658;28;20026;-91
2021/04/17 03:12:24;;;;;;;66.82;12.35;;;;;;;10.98;42.47;71788.66;5018756;28;20026;-91
2021/04/17 03:14:51;;;;;;;53.35;8.93;;;;;;;11.18;42.74;71805.81;5018181;28;20073;-90
2021/04/17 03:17:18;;;;;;;45.05;7.53;;;;;;;11.35;41.65;71826.06;5016789;28;20034;-88
2021/04/17 03:19:44;;;;;;;60.35;9.60;;;;;;;11.76;40.75;71878.06;5026342;28;20057;-91
2021/04/17 03:22:11;;;;;;;48.08;8.57;;;;;;;11.68;41.12;71863.03;4979170;28;20503;-89
2021/04/17 03:24:38;;;;;;;63.60;10.35;;;;;;;11.56;39.15;71855.41;4995431;28;20038;-92
2021/04/17 03:27:06;;;;;;;61.40;10.50;;;;;;;11.34;38.47;71824.88;5022892;28;20030;-91
2021/04/17 03:29:34;;;;;;;48.35;9.50;;;;;;;12.44;38.71;71951.28;5033312;28;20034;-91
2021/04/17 03:32:01;;;;;;;54.95;12.77;;;;;;;11.96;40.40;71900.72;5033331;28;20032;-92
2021/04/17 03:34:28;;;;;;;68.15;12.38;;;;;;;11.95;42.08;71900.13;5021161;28;20069;-90
2021/04/17 03:36:55;;;;;;;49.38;12.20;;;;;;;11.95;43.67;71894.03;5001350;28;20029;-91
2021/04/17 03:39:22;;;;;;;55.55;9.60;;;;;;;10.64;43.82;71749.34;5042752;28;20010;-90
2021/04/17 03:41:49;;;;;;;58.33;10.52;;;;;;;12.00;43.76;71905.50;5046504;28;20038;-89
2021/04/17 03:44:16;;;;;;;69.22;10.52;;;;;;;11.34;44.29;71827.63;5020039;28;20037;-90
2021/04/17 03:46:43;;;;;;;94.63;12.45;;;;;;;11.82;46.24;71881.88;5014823;28;20058;-90
2021/04/17 03:49:09;;;;;;;85.50;11.88;;;;;;;10.95;47.06;71782.34;5002860;28;20018;-91
2021/04/17 03:51:36;;;;;;;74.88;12.75;;;;;;;11.96;47.06;71897.97;4997735;28;20034;-91
2021/04/17 03:54:03;;;;;;;66.63;12.43;;;;;;;11.62;47.68;71861.97;5006660;28;20034;-92
2021/04/17 03:56:30;;;;;;;75.03;15.20;;;;;;;10.49;49.12;71732.06;5000997;28;20023;-83
2021/04/17 03:58:57;;;;;;;77.10;13.88;;;;;;;11.09;49.74;71801.78;4992546;28;20034;-86
2021/04/17 04:01:24;;;;;;;82.70;13.45;;;;;;;11.30;52.00;71825.03;5008265;28;20026;-85
2021/04/17 04:03:51;;;;;;;70.13;14.02;;;;;;;11.00;54.84;71784.97;4995002;28;20053;-86
2021/04/17 04:06:19;;;;;;;69.53;12.38;;;;;;;9.23;56.77;71584.63;5008813;28;21852;-86
2021/04/17 04:08:47;;;;;;;60.90;11.57;;;;;;;10.37;57.58;71718.34;4996094;28;20035;-94
2021/04/17 04:11:14;;;;;;;63.42;12.07;;;;;;;10.27;58.73;71704.28;4986814;28;20027;-82
2021/04/17 04:13:41;;;;;;;62.42;12.98;;;;;;;10.93;58.70;71782.69;4992743;28;20444;-84
2021/04/17 04:16:08;;;;;;;67.57;11.90;;;;;;;10.13;59.03;71688.22;4995840;28;20034;-85
2021/04/17 04:18:35;;;;;;;54.63;10.32;;;;;;;10.09;60.74;71683.44;5022368;28;20050;-88
2021/04/17 04:21:02;;;;;;;53.50;10.50;;;;;;;10.06;62.47;71682.63;5001832;28;20033;-85
2021/04/17 04:23:29;;;;;;;60.33;10.48;;;;;;;10.37;63.01;71718.34;5004559;28;20060;-83
2021/04/17 04:25:55;;;;;;;57.47;10.43;;;;;;;9.91;60.11;71665.94;5005344;28;20006;-91
2021/04/17 04:28:22;;;;;;;48.45;11.10;;;;;;;9.90;60.37;71664.75;5010687;28;20479;-92
2021/04/17 04:30:50;;;;;;;47.08;10.20;;;;;;;9.76;59.60;71645.94;5013934;28;20061;-85
2021/04/17 04:33:16;;;;;;;49.63;10.55;;;;;;;9.86;60.11;71657.84;5019539;28;21218;-84
2021/04/17 04:35:43;;;;;;;53.60;10.57;;;;;;;9.31;61.29;71591.41;4997885;28;20403;-86
2021/04/17 04:38:10;;;;;;;47.45;10.73;;;;;;;10.18;60.51;71696.31;5005965;28;20388;-89
2021/04/17 04:40:37;;;;;;;54.30;11.73;;;;;;;10.50;60.24;71733.25;4989734;28;20503;-87
2021/04/17 04:43:04;;;;;;;28.05;9.63;;;;;;;8.49;60.93;71500.13;5006881;28;20030;-80
2021/04/17 04:45:31;;;;;;;60.35;13.77;;;;;;;8.88;62.66;71545.38;4990752;28;20030;-85
2021/04/17 04:47:59;;;;;;;69.85;12.07;;;;;;;8.87;62.91;71543.59;4991971;28;20049;-84
2021/04/17 04:50:26;;;;;;;51.40;9.75;;;;;;;9.05;62.48;71567.16;5007512;28;20038;-82
2021/04/17 04:52:52;;;;;;;41.38;11.68;;;;;;;8.34;63.09;71480.75;4995357;28;20027;-83
2021/04/17 04:55:19;;;;;;;47.88;11.57;;;;;;;8.37;65.77;71483.16;4992618;28;20027;-81
2021/04/17 04:57:46;;;;;;;58.40;12.57;;;;;;;9.57;66.47;71624.50;4991573;28;20030;-83
2021/04/17 05:00:13;;;;;;;67.28;12.60;;;;;;;9.55;66.61;71624.28;4991815;28;20038;-81
2021/04/17 05:02:40;;;;;;;61.22;12.98;;;;;;;9.62;66.84;71632.03;4997800;28;20052;-80
2021/04/17 05:05:07;;;;;;;55.85;11.68;;;;;;;9.24;67.88;71588.56;4995016;28;20031;-83
2021/04/17 05:07:34;;;;;;;53.85;10.85;;;;;;;8.75;68.58;71529.91;5003135;28;20117;-81
2021/04/17 05:10:01;;;;;;;54.17;13.68;;;;;;;9.37;68.40;71603.44;4987480;28;20496;-85
2021/04/17 05:12:28;;;;;;;41.22;12.85;;;;;;;9.52;68.96;71617.97;4993330;28;20058;-91
2021/04/17 05:14:55;;;;;;;59.00;12.50;;;;;;;8.93;69.12;71547.38;5010477;28;20038;-91
2021/04/17 05:17:22;;;;;;;45.22;8.82;;;;;;;9.09;70.33;71569.16;4992872;28;20483;-86
2021/04/17 05:19:49;;;;;;;45.38;9.90;;;;;;;8.61;69.00;71511.69;4991006;28;20030;-88
2021/04/17 05:22:16;;;;;;;41.63;13.38;;;;;;;10.01;68.28;71677.25;4992657;28;20120;-86
2021/04/17 05:24:42;;;;;;;39.97;8.55;;;;;;;8.56;67.90;71502.44;4996994;28;20492;-87
2021/04/17 05:27:09;;;;;;;49.10;9.00;;;;;;;8.65;68.12;71523.47;4998443;28;20026;-85
2021/04/17 05:29:36;;;;;;;54.95;9.57;;;;;;;9.81;68.18;71651.31;4994192;28;20048;-87
2021/04/17 05:32:04;;;;;;;43.15;8.10;;;;;;;8.71;67.92;71528.50;4993606;28;20049;-86
2021/04/17 05:34:30;;;;;;;38.75;10.20;;;;;;;8.84;67.28;71540.00;5009739;28;20503;-86
2021/04/17 05:36:57;;;;;;;40.75;9.05;;;;;;;8.79;68.15;71537.41;4983732;28;20058;-86
2021/04/17 05:39:24;;;;;;;46.67;10.32;;;;;;;9.12;69.14;71575.50;4995535;28;20022;-88
2021/04/17 05:41:51;;;;;;;43.30;10.00;;;;;;;8.69;68.82;71523.38;5000055;28;20038;-87
2021/04/17 05:44:17;;;;;;;40.47;10.95;;;;;;;8.63;69.16;71514.06;4989613;28;20483;-82
2021/04/17 05:46:44;;;;;;;32.03;8.60;;;;;;;9.09;69.10;71568.59;4989936;28;20027;-85
2021/04/17 05:49:12;;;;;;;33.55;9.93;;;;;;;9.61;69.77;71631.41;5006080;28;20046;-83
2021/04/17 05:51:41;;;;;;;45.40;7.80;;;;;;;9.31;69.57;71596.91;4989171;28;20061;-81
2021/04/17 05:54:09;;;;;;;56.63;12.00;;;;;;;9.42;69.08;71606.66;4991135;28;20050;-83
2021/04/17 05:56:36;;;;;;;47.67;8.13;;;;;;;8.98;68.95;71553.34;4990177;28;20121;-81
2021/04/17 05:59:04;;;;;;;41.03;10.43;;;;;;;9.52;69.66;71620.72;4989349;28;20502;-83
2021/04/17 06:01:31;;;;;;;52.03;8.32;;;;;;;9.83;68.95;71656.41;4991374;28;20081;-82
2021/04/17 06:03:58;;;;;;;44.03;9.30;;;;;;;9.70;68.32;71638.81;4992335;28;20050;-83
2021/04/17 06:06:25;;;;;;;47.20;8.57;;;;;;;9.99;67.65;71675.47;4990655;28;20031;-83
2021/04/17 06:08:52;;;;;;;44.00;10.48;;;;;;;9.94;67.60;71668.94;4988124;28;20037;-83
2021/04/17 06:11:19;;;;;;;51.55;10.88;;;;;;;9.81;67.78;71648.56;4990058;28;20054;-82
2021/04/17 06:13:46;;;;;;;49.78;9.52;;;;;;;8.29;68.71;71476.94;4989095;28;20037;-82
2021/04/17 06:16:13;;;;;;;41.35;11.00;;;;;;;8.38;69.49;71490.38;4998075;28;20062;-84
2021/04/17 06:18:39;;;;;;;32.22;9.38;;;;;;;9.10;69.56;71572.50;4989646;28;20034;-83
2021/04/17 06:21:07;;;;;;;36.00;9.52;;;;;;;8.46;68.74;71494.41;4984043;28;20072;-83
2021/04/17 06:23:37;;;;;;;40.97;8.20;;;;;;;8.58;69.64;71510.28;5008369;28;20556;-82
2021/04/17 06:26:04;;;;;;;44.35;9.07;;;;;;;9.66;69.74;71636.78;5009942;28;20445;-84
2021/04/17 06:28:32;;;;;;;39.15;7.63;;;;;;;9.02;68.54;71560.84;4976604;28;20038;-82
2021/04/17 06:30:59;;;;;;;48.25;10.88;;;;;;;9.71;68.43;71640.00;4982902;28;20026;-82
2021/04/17 06:33:26;;;;;;;43.03;9.60;;;;;;;9.51;69.51;71616.78;4986192;28;20168;-83
2021/04/17 06:35:53;;;;;;;50.22;10.25;;;;;;;9.54;68.78;71620.94;4990324;28;20057;-82
2021/04/17 06:38:20;;;;;;;35.83;7.38;;;;;;;8.89;68.80;71549.31;4993973;28;20034;-82
2021/04/17 06:40:51;;;;;;;36.53;7.97;;;;;;;9.98;68.56;71671.53;4995226;28;20109;-80
2021/04/17 06:43:22;;;;;;;53.03;12.52;;;;;;;9.56;68.77;71622.72;4994589;28;21428;-81
2021/04/17 06:45:54;;;;;;;39.58;10.88;;;;;;;9.79;69.15;71648.91;4995848;28;20243;-83
2021/04/17 06:48:23;;;;;;;32.30;8.13;;;;;;;9.15;70.19;71579.06;5003965;28;20057;-83
2021/04/17 06:50:51;;;;;;;40.90;11.23;;;;;;;8.43;71.38;71493.03;4992582;28;20511;-83
2021/04/17 06:53:20;;;;;;;46.20;8.27;;;;;;;8.90;70.96;71547.75;4993392;28;20030;-83
2021/04/17 06:55:53;;;;;;;36.42;8.27;;;;;;;9.55;69.99;71624.28;4993210;28;20077;-82
2021/04/17 06:58:21;;;;;;;50.47;9.15;;;;;;;9.44;69.51;71609.03;4994135;28;20490;-86
2021/04/17 07:00:48;;;;;;;40.65;9.52;;;;;;;8.78;69.25;71536.22;5007314;28;20373;-85
2021/04/17 07:03:18;;;;;;;45.38;8.50;;;;;;;9.76;69.70;71645.94;5012384;28;20030;-83
2021/04/17 07:05:45;;;;;;;48.05;7.57;;;;;;;10.02;68.92;71675.09;5005711;28;20029;-83
2021/04/17 07:08:12;;;;;;;41.35;7.95;;;;;;;10.20;66.77;71696.56;5011723;28;20045;-81
2021/04/17 07:10:39;;;;;;;65.45;8.18;;;;;;;9.84;63.55;71654.88;4995015;28;20038;-82
2021/04/17 07:13:11;;;;;;;29.40;7.05;;;;;;;10.41;62.12;71720.97;5000850;28;20480;-81
2021/04/17 07:15:39;;;;;;;30.70;6.55;;;;;;;10.05;60.11;71676.53;4993035;28;20137;-84
2021/04/17 07:18:24;;;;;;;49.65;8.15;;;;;;;10.89;59.82;71772.44;5000607;28;20029;-84
2021/04/17 07:20:51;;;;;;;43.40;7.68;;;;;;;10.84;59.15;71769.22;5012623;28;20030;-84
2021/04/17 07:23:33;;;;;;;30.15;6.93;;;;;;;10.90;59.19;71776.38;4986130;28;20031;-83
2021/04/17 07:26:22;;;;;;;34.47;8.73;;;;;;;10.78;58.68;71760.53;5006295;28;20030;-84
2021/04/17 07:29:21;;;;;;;18.75;6.57;;;;;;;10.80;58.83;71765.66;5009105;28;20202;-84
2021/04/17 07:31:51;;;;;;;36.50;8.35;;;;;;;10.40;58.23;71719.16;4973961;28;20037;-86
2021/04/17 07:34:21;;;;;;;31.73;6.40;;;;;;;11.09;56.93;71796.28;4990039;28;20031;-84
2021/04/17 07:36:59;;;;;;;35.83;7.82;;;;;;;10.56;55.46;71739.81;5003521;28;20069;-85
2021/04/17 07:39:38;;;;;;;36.45;7.40;;;;;;;11.13;54.46;71802.59;5000055;28;20081;-86
2021/04/17 07:42:15;;;;;;;33.22;5.15;;;;;;;9.96;53.20;71671.91;4994390;28;20038;-86
2021/04/17 07:44:45;;;;;;;26.73;5.28;;;;;;;10.40;52.74;71717.03;5010456;28;20038;-84
2021/04/17 07:47:12;;;;;;;31.70;7.20;;;;;;;10.88;51.27;71771.25;5012813;28;20054;-83
2021/04/17 07:49:40;;;;;;;24.33;5.60;;;;;;;9.94;50.36;71666.75;4991957;28;20395;-83
2021/04/17 07:52:16;;;;;;;38.65;6.82;;;;;;;10.17;50.72;71695.72;4996980;28;20030;-84
2021/04/17 07:55:01;;;;;;;41.03;6.97;;;;;;;10.80;48.90;71768.41;4991486;28;20030;-84
2021/04/17 07:57:40;;;;;;;22.17;4.10;;;;;;;10.93;48.49;71783.31;5002218;28;20034;-83
2021/04/17 08:00:10;;;;;;;28.05;4.47;;;;;;;10.72;47.78;71758.88;5011467;28;20471;-84
2021/04/17 08:02:38;;;;;;;26.98;4.18;;;;;;;10.19;48.21;71697.50;4995843;28;20038;-84
2021/04/17 08:05:06;;;;;;;28.83;4.20;;;;;;;10.84;47.16;71769.22;4996031;28;20038;-85
2021/04/17 08:07:36;;;;;;;18.05;4.05;;;;;;;10.36;47.17;71715.03;4996634;28;20167;-85
2021/04/17 08:10:05;;;;;;;;;;;;;;;10.74;47.33;71761.25;4996461;28;20030;-85
2021/04/17 08:12:35;;;;;;;24.02;4.25;;;;;;;10.25;46.24;71701.91;5000706;28;20483;-85
2021/04/17 08:15:05;;;;;;;24.55;4.63;;;;;;;10.64;46.09;71749.34;5011296;28;20030;-83
2021/04/17 08:17:32;;;;;;;16.15;4.43;;;;;;;9.88;46.48;71661.78;4999861;28;20053;-84
2021/04/17 08:20:00;;;;;;;32.53;4.07;;;;;;;10.50;46.52;71733.88;5014300;28;20420;-84
2021/04/17 08:22:28;;;;;;;16.38;3.13;;;;;;;10.38;46.41;71719.53;4993020;28;20041;-74
2021/04/17 08:24:55;;;;;;;15.80;2.95;;;;;;;10.66;45.72;71751.72;4990979;28;20026;-76
2021/04/17 08:27:22;;;;;;;19.02;3.13;;;;;;;10.51;45.30;71735.06;4991545;28;20022;-74
2021/04/17 08:29:54;;;;;;;22.83;3.42;;;;;;;10.64;45.10;71746.59;4992951;28;20038;-75
2021/04/17 08:32:31;;;;;;;9.48;2.58;;;;;;;10.85;44.88;71773.16;4996463;28;20040;-73
2021/04/17 08:35:09;;;;;;;15.20;2.50;;;;;;;10.61;44.63;71743.03;4987679;28;20045;-73
2021/04/17 08:37:56;;;;;;;20.52;2.70;;;;;;;10.47;45.97;71726.94;4990020;28;20107;-74
2021/04/17 08:40:38;;;;;;;11.63;2.47;;;;;;;10.57;45.96;71741.00;4992535;28;20041;-75
2021/04/17 08:43:18;;;;;;;10.82;3.83;;;;;;;10.59;46.26;71740.63;5003383;28;20498;-74
2021/04/17 08:46:05;;;;;;;;;;;;;;;10.39;46.99;71718.59;4993673;28;20084;-73
2021/04/17 08:48:58;;;;;;;10.05;2.80;;;;;;;10.54;46.70;71735.28;4989663;28;19932;-73
2021/04/17 08:51:38;;;;;;;9.68;3.15;;;;;;;10.21;48.17;71697.75;4981681;28;20014;-74
2021/04/17 08:54:08;;;;;;;;;;;;;;;10.23;48.19;71700.13;5006216;28;20023;-85
2021/04/17 08:56:53;;;;;;;14.73;2.38;;;;;;;9.48;47.42;71610.44;4989375;28;19914;-92
2021/04/17 08:59:20;;;;;;;21.55;2.60;;;;;;;9.97;48.41;71673.09;4992414;28;20085;-88
2021/04/17 09:01:48;;;;;;;10.52;3.40;;;;;;;9.09;48.29;71569.16;5007990;28;20448;-82
2021/04/17 09:04:15;;;;;;;19.75;3.28;;;;;;;9.35;48.20;71598.94;5017336;28;20035;-84
2021/04/17 09:06:44;;;;;;;8.20;3.75;;;;;;;9.77;47.33;71649.28;5011927;28;20026;-87
2021/04/17 09:09:18;;;;;;;6.90;2.25;;;;;;;10.06;47.56;71683.22;5030578;28;20033;-89
2021/04/17 09:11:50;;;;;;;8.15;2.65;;;;;;;10.05;46.34;71678.69;5030923;28;20121;-87
2021/04/17 09:14:29;;;;;;;14.60;2.65;;;;;;;10.08;44.75;71685.59;5026014;28;20026;-86
2021/04/17 09:17:28;;;;;;;11.35;2.50;;;;;;;10.03;44.15;71679.06;4990133;28;20030;-85
2021/04/17 09:19:55;;;;;;;12.27;2.47;;;;;;;9.05;44.91;71567.16;4973762;28;20039;-90
2021/04/17 09:22:30;;;;;;;11.00;3.45;;;;;;;9.61;45.30;71625.94;5007760;28;20037;-88
2021/04/17 09:24:59;;;;;;;10.68;2.90;;;;;;;9.22;45.77;71586.78;5020101;28;20037;-89
2021/04/17 09:27:45;;;;;;;10.33;3.57;;;;;;;9.58;47.64;71627.84;5010345;28;20022;-88
2021/04/17 09:30:21;;;;;;;11.50;3.30;;;;;;;9.58;48.51;71627.84;4972840;28;20034;-88
2021/04/17 09:32:57;;;;;;;10.75;3.40;;;;;;;9.38;50.10;71599.75;5002593;28;20034;-88
2021/04/17 09:35:37;;;;;;;16.48;3.70;;;;;;;9.29;50.76;71591.78;4995978;28;20017;-91
2021/04/17 09:38:14;;;;;;;16.10;4.10;;;;;;;9.44;52.05;71609.63;4993042;28;20447;-87
2021/04/17 09:40:46;;;;;;;20.48;3.40;;;;;;;9.48;52.23;71615.94;5005048;28;20034;-88
2021/04/17 09:43:35;;;;;;;12.32;3.28;;;;;;;9.21;51.56;71585.00;5012188;28;20022;-92
2021/04/17 09:46:17;;;;;;;10.35;3.13;;;;;;;8.41;51.31;71491.22;5006886;28;20045;-90
2021/04/17 09:48:46;;;;;;;14.63;3.08;;;;;;;9.05;51.22;71564.41;5013645;28;20042;-87
2021/04/17 09:51:29;;;;;;;8.63;3.75;;;;;;;8.57;51.39;71512.41;5004774;28;20022;-88
2021/04/17 09:54:05;;;;;;;12.63;3.50;;;;;;;9.31;51.41;71591.41;5022122;28;20041;-88
2021/04/17 09:56:42;;;;;;;8.73;2.63;;;;;;;9.07;52.01;71566.78;4995677;28;20140;-83
2021/04/17 09:59:12;;;;;;;15.40;3.65;;;;;;;8.62;52.16;71518.38;4997874;28;20030;-87
2021/04/17 10:01:56;;;;;;;11.38;3.15;;;;;;;9.21;51.01;71580.09;5003172;28;20040;-91
2021/04/17 10:04:23;;;;;;;16.98;3.47;;;;;;;8.64;50.90;71520.16;4994717;28;20038;-87
2021/04/17 10:06:59;;;;;;;8.43;3.20;;;;;;;8.71;50.35;71525.16;5012064;28;20392;-87
2021/04/17 10:09:26;;;;;;;17.45;4.60;;;;;;;8.49;50.09;71503.47;4994382;28;20033;-86
2021/04/17 10:12:05;;;;;;;11.70;3.05;;;;;;;9.02;50.28;71563.56;4998866;28;20076;-88
2021/04/17 10:14:32;;;;;;;12.10;2.80;;;;;;;8.48;49.32;71502.28;4994340;28;20032;-86
2021/04/17 10:17:01;;;;;;;16.23;3.95;;;;;;;8.97;49.80;71552.16;5011115;28;20867;-89
2021/04/17 10:19:30;;;;;;;20.73;4.85;;;;;;;8.77;49.57;71535.03;5012179;28;20044;-87
2021/04/17 10:22:02;;;;;;;12.83;3.43;;;;;;;8.62;50.41;71518.38;5011323;28;20169;-87
2021/04/17 10:24:34;;;;;;;15.35;4.20;;;;;;;8.92;50.72;71546.81;5014383;28;20149;-84
2021/04/17 10:27:08;;;;;;;12.73;3.00;;;;;;;8.65;51.39;71520.75;5009311;28;20030;-84
2021/04/17 10:29:42;;;;;;;28.77;4.80;;;;;;;8.93;52.54;71552.88;4982771;28;20805;-82
2021/04/17 10:32:18;;;;;;;19.90;5.45;;;;;;;8.90;54.17;71550.50;5008028;28;20026;-74
2021/04/17 10:34:50;;;;;;;17.73;4.22;;;;;;;8.28;54.74;71473.63;4994103;28;20027;-81
2021/04/17 10:37:23;;;;;;;15.55;4.10;;;;;;;7.51;56.26;71391.13;5009896;28;20035;-84
2021/04/17 10:40:08;;;;;;;18.15;4.00;;;;;;;7.40;57.76;71378.06;4998827;28;20026;-83
2021/04/17 10:42:53;;;;;;;16.85;3.33;;;;;;;8.81;58.79;71537.06;5003201;28;20484;-82
2021/04/17 10:45:25;;;;;;;24.52;5.15;;;;;;;8.14;59.38;71456.97;4998208;28;20034;-84
2021/04/17 10:48:17;;;;;;;17.33;4.45;;;;;;;8.67;61.42;71520.41;4973465;28;20042;-81
2021/04/17 10:50:56;;;;;;;16.73;3.38;;;;;;;7.89;61.63;71433.91;4993499;28;20389;-82
2021/04/17 10:53:38;;;;;;;19.17;4.53;;;;;;;7.92;60.68;71438.06;4999873;28;20034;-81
2021/04/17 10:56:12;;;;;;;16.48;3.28;;;;;;;8.72;60.78;71526.34;4993409;28;20027;-81
2021/04/17 10:58:41;;;;;;;19.42;3.95;;;;;;;8.13;60.55;71456.38;4986875;28;20062;-82
2021/04/17 11:01:16;;;;;;;14.15;4.20;;;;;;;8.27;61.52;71477.91;4979636;28;20057;-83
2021/04/17 11:03:47;;;;;;;16.50;4.30;;;;;;;7.81;61.67;71425.59;4991337;28;20081;-81
2021/04/17 11:06:26;;;;;;;18.45;5.03;;;;;;;8.55;61.48;71507.31;5006631;28;20019;-79
2021/04/17 11:09:12;;;;;;;22.45;4.03;;;;;;;8.65;61.86;71515.25;4974555;28;20035;-80
2021/04/17 11:12:01;;;;;;;18.35;3.92;;;;;;;8.62;61.60;71518.38;4980501;28;20027;-81
2021/04/17 11:14:30;;;;;;;25.67;4.70;;;;;;;8.28;62.37;71479.09;4980678;28;20116;-81
2021/04/17 11:16:57;;;;;;;16.50;3.42;;;;;;;7.73;62.09;71415.50;4986642;28;20027;-80
2021/04/17 11:19:30;;;;;;;18.38;5.10;;;;;;;8.47;61.85;71500.50;4973114;28;20495;-81
2021/04/17 11:22:08;;;;;;;22.85;5.25;;;;;;;8.42;62.38;71494.56;4975019;28;20050;-81
2021/04/17 11:24:36;;;;;;;17.92;4.40;;;;;;;8.13;63.34;71461.28;5012451;28;20619;-82
2021/04/17 11:27:03;;;;;;;32.83;5.50;;;;;;;8.66;62.97;71516.47;4999204;28;20053;-81
2021/04/17 11:29:30;;;;;;;25.05;5.93;;;;;;;8.03;64.21;71449.97;5002792;28;20023;-84
2021/04/17 11:31:57;;;;;;;17.23;4.60;;;;;;;7.88;63.82;71430.00;5013945;28;20038;-84
2021/04/17 11:34:24;;;;;;;14.45;4.13;;;;;;;8.24;64.57;71474.34;4995943;28;20025;-89
2021/04/17 11:36:51;;;;;;;13.75;4.75;;;;;;;8.61;63.78;71517.19;5004877;28;20027;-89
2021/04/17 11:39:20;;;;;;;18.90;5.53;;;;;;;8.46;64.57;71499.31;4997317;28;20033;-87
2021/04/17 11:41:47;;;;;;;36.35;4.95;;;;;;;7.48;63.67;71384.81;4994905;28;20029;-88
2021/04/17 11:44:13;;;;;;;20.40;5.28;;;;;;;7.80;64.38;71421.66;5018472;28;20116;-88